createdAt,value
2023-02-03T00:00:07.962Z,8.70
2023-02-03T00:02:43.039Z,8.70
2023-02-03T00:05:10.953Z,8.70
2023-02-03T00:07:40.489Z,8.70
2023-02-03T00:10:09.243Z,8.70
2023-02-03T00:12:37.321Z,8.70
2023-02-03T00:15:05.815Z,8.70
2023-02-03T00:17:33.600Z,8.70
2023-02-03T00:20:01.554Z,8.70
2023-02-03T00:22:29.230Z,8.70
2023-02-03T00:24:57.272Z,8.70
2023-02-03T00:27:27.347Z,8.70
2023-02-03T00:29:55.562Z,8.60
2023-02-03T00:32:23.493Z,8.60
2023-02-03T00:34:51.543Z,8.60
2023-02-03T00:37:19.701Z,8.70
2023-02-03T00:39:47.580Z,8.60
2023-02-03T00:42:16.261Z,8.60
2023-02-03T00:44:45.017Z,8.60
2023-02-03T00:47:12.917Z,8.70
2023-02-03T00:49:41.099Z,8.70
2023-02-03T00:52:08.898Z,8.80
2023-02-03T00:54:39.233Z,8.70
2023-02-03T00:57:07.171Z,8.70
2023-02-03T00:59:35.051Z,8.70
2023-02-03T01:02:03.778Z,8.60
2023-02-03T01:04:31.638Z,8.60
2023-02-03T01:07:00.231Z,8.60
2023-02-03T01:09:30.150Z,8.60
2023-02-03T01:11:58.169Z,8.60
2023-02-03T01:14:26.152Z,8.60
2023-02-03T01:16:54.262Z,8.60
2023-02-03T01:19:22.378Z,8.60
2023-02-03T01:21:50.484Z,8.60
2023-02-03T01:24:18.446Z,8.60
2023-02-03T01:26:46.714Z,8.50
2023-02-03T01:29:15.278Z,8.60
2023-02-03T01:31:43.784Z,8.60
2023-02-03T01:34:16.842Z,8.60
2023-02-03T01:36:45.034Z,8.60
2023-02-03T01:39:13.686Z,8.60
2023-02-03T01:41:41.894Z,8.50
2023-02-03T01:44:40.406Z,8.50
2023-02-03T01:47:31.863Z,8.50
2023-02-03T01:50:23.798Z,8.60
2023-02-03T01:52:57.766Z,8.50
2023-02-03T01:55:39.404Z,8.60
2023-02-03T01:58:20.649Z,8.60
2023-02-03T02:00:50.177Z,8.50
2023-02-03T02:03:21.635Z,8.50
2023-02-03T02:05:55.098Z,8.50
2023-02-03T02:08:24.124Z,8.40
2023-02-03T02:10:52.708Z,8.40
2023-02-03T02:13:21.525Z,8.40
2023-02-03T02:16:07.363Z,8.40
2023-02-03T02:19:08.732Z,8.40
2023-02-03T02:21:50.306Z,8.30
2023-02-03T02:24:43.331Z,8.20
2023-02-03T02:27:20.542Z,8.20
2023-02-03T02:30:18.231Z,8.20
2023-02-03T02:33:05.508Z,8.10
2023-02-03T02:36:01.874Z,8.10
2023-02-03T02:38:53.400Z,8.10
2023-02-03T02:41:25.531Z,8.10
2023-02-03T02:44:10.382Z,8.00
2023-02-03T02:46:50.992Z,8.00
2023-02-03T02:49:36.106Z,8.00
2023-02-03T02:52:08.084Z,7.90
2023-02-03T02:54:39.911Z,7.90
2023-02-03T02:57:12.319Z,7.90
2023-02-03T02:59:40.622Z,7.80
2023-02-03T03:02:11.443Z,7.80
2023-02-03T03:04:41.220Z,7.80
2023-02-03T03:07:18.612Z,7.80
2023-02-03T03:09:53.089Z,7.80
2023-02-03T03:12:36.088Z,7.90
2023-02-03T03:15:16.206Z,7.90
2023-02-03T03:17:58.190Z,7.90
2023-02-03T03:20:28.276Z,8.00
2023-02-03T03:23:12.288Z,8.00
2023-02-03T03:25:52.327Z,8.00
2023-02-03T03:28:37.515Z,8.00
2023-02-03T03:31:06.057Z,8.00
2023-02-03T03:33:33.985Z,8.00
2023-02-03T03:36:22.203Z,8.10
2023-02-03T03:38:57.738Z,8.10
2023-02-03T03:41:40.284Z,8.10
2023-02-03T03:44:13.489Z,8.00
2023-02-03T03:46:56.692Z,8.00
2023-02-03T03:49:26.013Z,8.00
2023-02-03T03:52:01.978Z,8.10
2023-02-03T03:54:31.921Z,8.00
2023-02-03T03:57:09.102Z,8.00
2023-02-03T03:59:40.109Z,8.00
2023-02-03T04:02:08.488Z,8.00
2023-02-03T04:04:38.481Z,8.00
2023-02-03T04:07:06.407Z,8.00
2023-02-03T04:09:37.069Z,8.00
2023-02-03T04:12:06.894Z,7.90
2023-02-03T04:14:39.120Z,7.90
2023-02-03T04:17:07.500Z,7.90
2023-02-03T04:19:35.149Z,7.90
2023-02-03T04:22:03.918Z,7.90
2023-02-03T04:24:31.923Z,7.90
2023-02-03T04:26:59.846Z,7.80
2023-02-03T04:29:28.790Z,7.80
2023-02-03T04:31:57.158Z,7.80
2023-02-03T04:34:24.857Z,7.80
2023-02-03T04:36:55.437Z,7.80
2023-02-03T04:39:23.418Z,7.80
2023-02-03T04:41:51.317Z,7.80
2023-02-03T04:44:19.181Z,7.70
2023-02-03T04:46:47.084Z,7.70
2023-02-03T04:49:15.132Z,7.70
2023-02-03T04:51:44.666Z,7.60
2023-02-03T04:54:12.798Z,7.60
2023-02-03T04:56:40.502Z,7.50
2023-02-03T04:59:08.720Z,7.50
2023-02-03T05:01:36.547Z,7.50
2023-02-03T05:04:04.479Z,7.40
2023-02-03T05:06:34.941Z,7.40
2023-02-03T05:09:03.267Z,7.40
2023-02-03T05:11:31.361Z,7.40
2023-02-03T05:13:59.516Z,7.30
2023-02-03T05:16:27.398Z,7.40
2023-02-03T05:18:55.386Z,7.30
2023-02-03T05:21:23.397Z,7.30
2023-02-03T05:23:51.411Z,7.30
2023-02-03T05:26:19.087Z,7.20
2023-02-03T05:28:47.394Z,7.20
2023-02-03T05:31:15.249Z,7.20
2023-02-03T05:33:43.299Z,7.20
2023-02-03T05:36:11.052Z,7.10
2023-02-03T05:38:38.972Z,7.10
2023-02-03T05:41:25.135Z,7.10
2023-02-03T05:43:53.536Z,7.10
2023-02-03T05:46:21.190Z,7.00
2023-02-03T05:48:49.203Z,7.00
2023-02-03T05:51:16.987Z,7.00
2023-02-03T05:53:44.901Z,6.90
2023-02-03T05:56:13.103Z,6.90
2023-02-03T05:58:41.058Z,6.90
2023-02-03T06:01:08.878Z,6.90
2023-02-03T06:03:36.822Z,6.90
2023-02-03T06:06:04.620Z,6.90
2023-02-03T06:08:32.644Z,6.90
2023-02-03T06:11:01.298Z,6.90
2023-02-03T06:13:29.595Z,6.90
2023-02-03T06:15:57.646Z,6.90
2023-02-03T06:18:25.696Z,6.90
2023-02-03T06:20:53.364Z,7.00
2023-02-03T06:23:21.372Z,7.00
2023-02-03T06:25:50.607Z,7.00
2023-02-03T06:28:19.430Z,7.10
2023-02-03T06:30:52.073Z,7.10
2023-02-03T06:33:23.848Z,7.20
2023-02-03T06:35:51.893Z,7.30
2023-02-03T06:38:19.671Z,7.50
2023-02-03T06:40:48.705Z,7.60
2023-02-03T06:43:16.835Z,7.70
2023-02-03T06:45:50.627Z,7.90
2023-02-03T06:48:18.782Z,8.00
2023-02-03T06:50:48.664Z,8.20
2023-02-03T06:53:17.389Z,8.30
2023-02-03T06:55:45.186Z,8.50
2023-02-03T06:58:13.182Z,8.70
2023-02-03T07:00:40.961Z,8.90
2023-02-03T07:03:08.827Z,9.10
2023-02-03T07:05:37.172Z,9.30
2023-02-03T07:08:05.534Z,9.40
2023-02-03T07:10:33.184Z,9.60
2023-02-03T07:13:07.938Z,9.80
2023-02-03T07:15:36.080Z,10.00
2023-02-03T07:18:06.861Z,10.20
2023-02-03T07:20:34.797Z,10.30
2023-02-03T07:23:02.432Z,10.50
2023-02-03T07:25:31.301Z,10.70
2023-02-03T07:27:59.287Z,10.90
2023-02-03T07:30:27.827Z,11.10
2023-02-03T07:32:55.662Z,11.30
2023-02-03T07:35:24.146Z,11.50
2023-02-03T07:37:51.996Z,11.70
2023-02-03T07:40:22.795Z,12.00
2023-02-03T07:42:50.924Z,12.20
2023-02-03T07:45:19.305Z,12.40
2023-02-03T07:47:47.163Z,12.60
2023-02-03T07:50:15.022Z,12.80
2023-02-03T07:52:42.850Z,13.00
2023-02-03T07:55:10.861Z,13.10
2023-02-03T07:57:44.320Z,13.30
2023-02-03T08:00:14.476Z,13.60
2023-02-03T08:02:44.014Z,13.80
2023-02-03T08:05:13.080Z,14.00
2023-02-03T08:07:42.195Z,14.20
2023-02-03T08:10:12.973Z,14.50
2023-02-03T08:12:44.884Z,14.70
2023-02-03T08:15:16.374Z,15.00
2023-02-03T08:17:44.913Z,15.30
2023-02-03T08:20:13.394Z,15.40
2023-02-03T08:22:41.773Z,15.50
2023-02-03T08:25:10.804Z,15.60
2023-02-03T08:27:48.497Z,15.80
2023-02-03T08:30:21.745Z,16.00
2023-02-03T08:32:53.223Z,16.30
2023-02-03T08:35:21.058Z,16.50
2023-02-03T08:37:48.876Z,16.70
2023-02-03T08:40:16.988Z,16.90
2023-02-03T08:42:44.830Z,17.00
2023-02-03T08:45:12.763Z,17.00
2023-02-03T08:47:40.655Z,17.10
2023-02-03T08:50:09.741Z,17.20
2023-02-03T08:52:37.975Z,17.50
2023-02-03T08:55:06.330Z,17.50
2023-02-03T08:57:36.308Z,17.90
2023-02-03T09:00:06.732Z,18.20
2023-02-03T09:02:34.616Z,18.40
2023-02-03T09:05:05.321Z,18.60
2023-02-03T09:07:33.252Z,18.80
2023-02-03T09:10:00.978Z,18.50
2023-02-03T09:12:29.029Z,18.60
2023-02-03T09:14:56.756Z,18.70
2023-02-03T09:17:24.528Z,18.80
2023-02-03T09:19:52.347Z,19.10
2023-02-03T09:22:20.320Z,19.50
2023-02-03T09:24:50.946Z,19.50
2023-02-03T09:27:18.898Z,19.40
2023-02-03T09:29:46.635Z,19.10
2023-02-03T09:32:15.649Z,18.80
2023-02-03T09:34:43.716Z,18.60
2023-02-03T09:37:11.623Z,19.00
2023-02-03T09:39:39.378Z,19.30
2023-02-03T09:42:40.934Z,19.40
2023-02-03T09:45:34.343Z,19.80
2023-02-03T09:48:25.616Z,19.90
2023-02-03T09:50:54.265Z,20.00
2023-02-03T09:53:44.228Z,20.30
2023-02-03T09:56:52.614Z,20.60
2023-02-03T09:59:21.002Z,21.00
2023-02-03T10:01:54.577Z,21.20
2023-02-03T10:04:40.292Z,20.80
2023-02-03T10:07:25.631Z,21.00
2023-02-03T10:10:08.656Z,21.50
2023-02-03T10:12:48.625Z,22.10
2023-02-03T10:15:57.689Z,22.10
2023-02-03T10:18:39.047Z,22.40
2023-02-03T10:21:45.593Z,22.70
2023-02-03T10:24:40.548Z,22.90
2023-02-03T10:27:19.651Z,23.00
2023-02-03T10:30:01.637Z,23.40
2023-02-03T10:32:29.629Z,23.40
2023-02-03T10:34:57.510Z,24.10
2023-02-03T10:37:42.610Z,24.40
2023-02-03T10:40:15.214Z,24.70
2023-02-03T10:43:06.321Z,25.00
2023-02-03T10:45:39.040Z,24.90
2023-02-03T10:48:14.462Z,24.70
2023-02-03T10:50:48.445Z,24.90
2023-02-03T10:53:20.754Z,25.30
2023-02-03T10:56:09.695Z,25.50
2023-02-03T10:58:39.787Z,25.00
2023-02-03T11:01:17.366Z,25.40
2023-02-03T11:04:00.299Z,26.00
2023-02-03T11:06:28.963Z,26.50
2023-02-03T11:08:57.101Z,27.80
2023-02-03T11:11:35.533Z,28.20
2023-02-03T11:14:03.316Z,28.20
2023-02-03T11:16:39.754Z,28.80
2023-02-03T11:19:18.326Z,28.80
2023-02-03T11:21:50.860Z,28.60
2023-02-03T11:24:33.862Z,28.60
2023-02-03T11:27:07.343Z,29.50
2023-02-03T11:29:45.066Z,30.20
2023-02-03T11:32:15.567Z,30.50
2023-02-03T11:34:55.763Z,30.70
2023-02-03T11:37:42.378Z,29.90
2023-02-03T11:40:12.838Z,30.00
2023-02-03T11:42:43.235Z,29.50
2023-02-03T11:45:39.492Z,29.10
2023-02-03T11:48:28.586Z,29.70
2023-02-03T11:51:21.397Z,31.10
2023-02-03T11:54:01.299Z,30.90
2023-02-03T11:56:41.925Z,30.30
2023-02-03T11:59:24.894Z,29.70
2023-02-03T12:02:10.595Z,29.60
2023-02-03T12:05:06.840Z,29.70
2023-02-03T12:07:59.208Z,30.00
2023-02-03T12:10:35.739Z,30.40
2023-02-03T12:13:18.552Z,30.70
2023-02-03T12:15:57.197Z,31.20
2023-02-03T12:18:41.046Z,30.90
2023-02-03T12:21:21.545Z,31.40
2023-02-03T12:24:02.044Z,31.50
2023-02-03T12:26:59.276Z,31.70
2023-02-03T12:29:45.597Z,31.70
2023-02-03T12:32:19.634Z,31.50
2023-02-03T12:34:53.095Z,30.90
2023-02-03T12:37:27.077Z,31.00
2023-02-03T12:40:03.326Z,31.10
2023-02-03T12:42:40.353Z,31.70
2023-02-03T12:45:19.498Z,31.90
2023-02-03T12:48:01.446Z,32.90
2023-02-03T12:50:38.340Z,32.60
2023-02-03T12:53:21.454Z,32.00
2023-02-03T12:56:03.136Z,32.10
2023-02-03T12:58:37.162Z,32.20
2023-02-03T13:01:31.655Z,32.40
2023-02-03T13:04:03.927Z,32.50
2023-02-03T13:06:54.456Z,32.30
2023-02-03T13:09:27.855Z,32.70
2023-02-03T13:11:58.411Z,33.00
2023-02-03T13:14:44.601Z,32.80
2023-02-03T13:17:15.980Z,32.30
2023-02-03T13:20:14.173Z,32.30
2023-02-03T13:22:43.123Z,31.90
2023-02-03T13:25:44.550Z,31.70
2023-02-03T13:28:44.536Z,31.80
2023-02-03T13:31:18.359Z,31.20
2023-02-03T13:33:54.887Z,32.00
2023-02-03T13:36:43.448Z,32.50
2023-02-03T13:39:32.424Z,32.60
2023-02-03T13:42:44.952Z,32.70
2023-02-03T13:45:39.880Z,32.20
2023-02-03T13:48:27.931Z,32.10
2023-02-03T13:51:16.543Z,32.60
2023-02-03T13:53:46.872Z,33.50
2023-02-03T13:56:23.830Z,33.30
2023-02-03T13:59:29.690Z,33.00
2023-02-03T14:02:22.300Z,32.80
2023-02-03T14:04:56.150Z,31.50
2023-02-03T14:07:26.925Z,31.00
2023-02-03T14:10:13.496Z,30.30
2023-02-03T14:12:50.465Z,30.00
2023-02-03T14:15:21.278Z,29.60
2023-02-03T14:17:49.046Z,28.90
2023-02-03T14:20:28.892Z,27.00
2023-02-03T14:23:20.270Z,25.30
2023-02-03T14:25:58.179Z,24.10
2023-02-03T14:28:43.553Z,23.00
2023-02-03T14:31:18.453Z,21.90
2023-02-03T14:33:49.377Z,21.10
2023-02-03T14:36:29.461Z,20.30
2023-02-03T14:39:04.287Z,20.00
2023-02-03T14:42:02.607Z,19.90
2023-02-03T14:44:54.516Z,19.50
2023-02-03T14:47:42.240Z,19.30
2023-02-03T14:50:34.593Z,19.00
2023-02-03T14:53:07.993Z,18.90
2023-02-03T14:55:47.721Z,18.80
2023-02-03T14:58:50.652Z,18.80
2023-02-03T15:02:08.968Z,18.60
2023-02-03T15:04:36.885Z,18.40
2023-02-03T15:07:04.628Z,18.30
2023-02-03T15:09:48.217Z,18.10
2023-02-03T15:12:23.078Z,17.90
2023-02-03T15:14:51.121Z,17.90
2023-02-03T15:17:27.540Z,17.80
2023-02-03T15:19:55.863Z,17.90
2023-02-03T15:22:29.463Z,18.00
2023-02-03T15:25:04.811Z,18.20
2023-02-03T15:27:33.958Z,18.40
2023-02-03T15:30:28.056Z,18.60
2023-02-03T15:33:18.326Z,18.90
2023-02-03T15:35:56.211Z,18.80
2023-02-03T15:38:37.909Z,18.90
2023-02-03T15:41:09.042Z,18.70
2023-02-03T15:43:42.152Z,18.70
2023-02-03T15:46:31.943Z,18.70
2023-02-03T15:49:13.009Z,18.50
2023-02-03T15:51:40.940Z,18.50
2023-02-03T15:54:44.634Z,18.60
2023-02-03T15:57:28.233Z,18.60
2023-02-03T16:00:51.896Z,18.50
2023-02-03T16:03:28.316Z,18.60
2023-02-03T16:05:56.293Z,18.40
2023-02-03T16:08:40.680Z,18.40
2023-02-03T16:11:31.766Z,18.30
2023-02-03T16:14:07.235Z,18.00
2023-02-03T16:16:49.419Z,17.40
2023-02-03T16:19:24.534Z,17.00
2023-02-03T16:21:57.821Z,16.80
2023-02-03T16:24:43.615Z,16.40
2023-02-03T16:27:22.939Z,16.20
2023-02-03T16:30:09.401Z,16.00
2023-02-03T16:32:56.096Z,15.80
2023-02-03T16:35:43.139Z,15.60
2023-02-03T16:38:35.761Z,15.50
2023-02-03T16:41:33.753Z,15.40
2023-02-03T16:44:20.243Z,15.30
2023-02-03T16:47:07.174Z,15.20
2023-02-03T16:49:53.704Z,15.20
2023-02-03T16:52:21.925Z,15.10
2023-02-03T16:54:49.743Z,15.10
2023-02-03T16:57:17.647Z,15.10
2023-02-03T16:59:45.726Z,15.00
2023-02-03T17:02:13.724Z,14.90
2023-02-03T17:04:41.611Z,14.90
2023-02-03T17:07:09.808Z,14.80
2023-02-03T17:09:37.697Z,14.70
2023-02-03T17:12:05.679Z,14.60
2023-02-03T17:14:33.546Z,14.60
2023-02-03T17:17:01.377Z,14.50
2023-02-03T17:19:29.274Z,14.50
2023-02-03T17:21:57.245Z,14.40
2023-02-03T17:24:25.124Z,14.30
2023-02-03T17:26:56.077Z,14.30
2023-02-03T17:29:25.620Z,14.30
2023-02-03T17:31:53.348Z,14.20
2023-02-03T17:34:21.450Z,14.10
2023-02-03T17:36:49.264Z,14.10
2023-02-03T17:55:34.140Z,13.70
2023-02-03T17:58:02.337Z,13.70
2023-02-03T18:00:30.599Z,13.60
2023-02-03T18:02:58.801Z,13.60
2023-02-03T18:05:27.268Z,13.50
2023-02-03T18:07:55.630Z,13.50
2023-02-03T18:10:23.533Z,13.40
2023-02-03T18:12:51.689Z,13.40
2023-02-03T18:15:19.578Z,13.40
2023-02-03T18:17:47.436Z,13.30
2023-02-03T18:20:15.126Z,13.30
2023-02-03T18:22:45.275Z,13.30
2023-02-03T18:25:17.874Z,13.20
2023-02-03T18:27:46.053Z,13.20
2023-02-03T18:30:15.430Z,13.20
2023-02-03T18:32:43.315Z,13.10
2023-02-03T18:35:14.269Z,13.10
2023-02-03T18:37:42.220Z,13.10
2023-02-03T18:40:11.194Z,13.00
2023-02-03T18:42:39.212Z,13.00
2023-02-03T18:45:07.564Z,13.00
2023-02-03T18:47:35.726Z,13.00
2023-02-03T18:50:04.014Z,12.90
2023-02-03T18:52:32.001Z,12.90
2023-02-03T18:54:59.890Z,12.80
2023-02-03T18:57:28.179Z,12.80
2023-02-03T18:59:56.227Z,12.70
2023-02-03T19:02:26.026Z,12.70
2023-02-03T19:04:54.158Z,12.60
2023-02-03T19:07:22.140Z,12.60
2023-02-03T19:09:50.144Z,12.60
2023-02-03T19:12:18.056Z,12.50
2023-02-03T19:14:45.961Z,12.50
2023-02-03T19:17:14.018Z,12.50
2023-02-03T19:19:41.941Z,12.50
2023-02-03T19:22:11.748Z,12.40
2023-02-03T19:24:40.092Z,12.50
2023-02-03T19:27:07.925Z,12.40
2023-02-03T19:29:35.890Z,12.40
2023-02-03T19:32:04.313Z,12.40
2023-02-03T19:34:32.321Z,12.40
2023-02-03T19:37:00.268Z,12.30
2023-02-03T19:39:28.309Z,12.30
2023-02-03T19:41:56.207Z,12.30
2023-02-03T19:44:24.528Z,12.20
2023-02-03T19:46:52.539Z,12.20
2023-02-03T19:49:21.749Z,12.20
2023-02-03T19:51:49.586Z,12.20
2023-02-03T19:54:17.818Z,12.10
2023-02-03T19:56:45.821Z,12.10
2023-02-03T19:59:13.736Z,12.10
2023-02-03T20:01:41.728Z,12.00
2023-02-03T20:04:09.799Z,12.00
2023-02-03T20:06:37.658Z,11.90
2023-02-03T20:09:07.162Z,11.90
2023-02-03T20:11:34.933Z,11.90
2023-02-03T20:14:02.972Z,11.80
2023-02-03T20:16:30.884Z,11.80
2023-02-03T20:19:01.590Z,11.70
2023-02-03T20:21:29.614Z,11.70
2023-02-03T20:23:57.420Z,11.70
2023-02-03T20:26:25.848Z,11.60
2023-02-03T20:28:53.584Z,11.60
2023-02-03T20:31:21.900Z,11.60
2023-02-03T20:33:51.215Z,11.50
2023-02-03T20:36:18.914Z,11.50
2023-02-03T20:38:47.224Z,11.50
2023-02-03T20:41:17.612Z,11.50
2023-02-03T20:43:46.397Z,11.50
2023-02-03T20:46:15.947Z,11.40
2023-02-03T20:48:44.252Z,11.40
2023-02-03T20:51:17.205Z,11.40
2023-02-03T20:53:45.360Z,11.40
2023-02-03T20:56:18.751Z,11.40
2023-02-03T20:58:46.807Z,11.40
2023-02-03T21:01:32.292Z,11.30
2023-02-03T21:04:39.538Z,11.30
2023-02-03T21:07:35.121Z,11.30
2023-02-03T21:10:18.543Z,11.20
2023-02-03T21:12:46.665Z,11.10
2023-02-03T21:15:25.494Z,11.00
2023-02-03T21:17:53.532Z,10.90
2023-02-03T21:20:30.741Z,10.90
2023-02-03T21:22:59.672Z,10.80
2023-02-03T21:25:34.204Z,10.70
2023-02-03T21:28:02.337Z,10.70
2023-02-03T21:30:35.062Z,10.70
2023-02-03T21:33:29.310Z,10.90
2023-02-03T21:35:57.435Z,10.90
2023-02-03T21:38:33.478Z,11.00
2023-02-03T21:41:02.293Z,11.00
2023-02-03T21:43:30.686Z,11.00
2023-02-03T21:45:59.057Z,11.10
2023-02-03T21:48:35.111Z,11.00
2023-02-03T21:51:15.833Z,11.00
2023-02-03T21:53:51.470Z,10.90
2023-02-03T21:56:37.782Z,10.80
2023-02-03T21:59:21.395Z,10.80
2023-02-03T22:02:10.397Z,10.80
2023-02-03T22:04:50.075Z,10.80
2023-02-03T22:07:19.078Z,10.70
2023-02-03T22:09:50.829Z,10.60
2023-02-03T22:12:18.911Z,10.60
2023-02-03T22:14:46.956Z,10.60
2023-02-03T22:17:15.600Z,10.60
2023-02-03T22:19:43.509Z,10.50
2023-02-03T22:22:11.395Z,10.50
2023-02-03T22:24:40.370Z,10.40
2023-02-03T22:27:08.374Z,10.30
2023-02-03T22:29:37.112Z,10.30
2023-02-03T22:32:04.976Z,10.30
2023-02-03T22:34:32.869Z,10.30
2023-02-03T22:37:00.884Z,10.20
2023-02-03T22:39:28.636Z,10.20
2023-02-03T22:41:56.487Z,10.20
2023-02-03T22:44:24.597Z,10.20
2023-02-03T22:46:52.509Z,10.10
2023-02-03T22:49:20.207Z,10.10
2023-02-03T22:51:48.180Z,10.10
2023-02-03T22:54:15.959Z,10.10
2023-02-03T22:56:43.824Z,10.10
2023-02-03T22:59:11.546Z,10.00
2023-02-03T23:01:39.350Z,10.00
2023-02-03T23:04:07.207Z,10.00
2023-02-03T23:06:35.357Z,9.90
2023-02-03T23:09:03.169Z,9.90
2023-02-03T23:11:31.171Z,9.80
2023-02-03T23:14:08.244Z,9.80
2023-02-03T23:16:42.505Z,9.90
2023-02-03T23:19:10.614Z,9.90
2023-02-03T23:21:38.551Z,9.90
2023-02-03T23:24:06.866Z,10.00
2023-02-03T23:26:35.721Z,10.00
2023-02-03T23:29:04.229Z,10.00
2023-02-03T23:31:32.226Z,10.00
2023-02-03T23:34:18.426Z,9.90
2023-02-03T23:36:46.359Z,9.90
2023-02-03T23:39:14.142Z,9.90
2023-02-03T23:41:42.292Z,9.90
2023-02-03T23:44:11.320Z,9.90
2023-02-03T23:46:42.044Z,9.90
2023-02-03T23:49:09.976Z,9.90
2023-02-03T23:51:37.817Z,9.80
2023-02-03T23:54:05.744Z,9.80
2023-02-03T23:56:33.521Z,9.80
2023-02-03T23:59:01.379Z,9.70
